Time;durP1;ratioP1;P1;durP2;ratioP2;P2;SDS_P1;SDS_P2;PMS_P1;PMS_P2;Temp;Humidity;BMP_temperature;BMP_pressure;BME280_temperature;BME280_humidity;BME280_pressure;Samples;Min_cycle;Max_cycle;Signal;HPM_P1;HPM_P2
2023/11/29 00:00:25;;;;;;;;;;;;;;;18.34;64.21;99100.56;7384776;19;1396;-68
2023/11/29 00:02:53;;;;;;;;;;;;;;;18.35;64.18;99107.59;7385078;19;1416;-68
2023/11/29 00:05:21;;;;;;;;;;;;;;;18.43;63.68;99099.53;7390661;19;1425;-68
2023/11/29 00:07:50;;;;;;;;;;;;;;;18.39;64.00;99104.38;7394160;19;1253;-68
2023/11/29 00:10:18;;;;;;;;;;;;;;;18.40;63.98;99105.22;7389544;19;3471;-50
2023/11/29 00:12:46;;;;;;;;;;;;;;;18.35;64.17;99124.47;7374149;19;2336;-50
2023/11/29 00:15:17;;;;;;;;;;;;;;;18.39;64.15;99116.94;7387772;19;1986;-50
2023/11/29 00:17:46;;;;;;;;;;;;;;;18.32;64.28;99106.06;7390592;19;1367;-50
2023/11/29 00:20:14;;;;;;;;;;;;;;;18.32;64.29;99114.09;7389915;19;1415;-50
2023/11/29 00:22:42;;;;;;;;;;;;;;;18.34;64.14;99100.56;7390864;19;1374;-50
2023/11/29 00:25:12;;;;;;;;;;;;;;;18.36;63.95;99101.22;7389704;19;1601;-49
2023/11/29 00:27:41;;;;;;;;;;;;;;;18.28;64.08;99113.63;7387749;19;3038;-50
2023/11/29 00:30:10;;;;;;;;;;;;;;;18.31;64.07;99117.78;7388284;19;1858;-50
2023/11/29 00:32:41;;;;;;;;;;;;;;;18.39;63.92;99111.59;7391584;19;1478;-50
2023/11/29 00:35:09;;;;;;;;;;;;;;;18.38;63.86;99142.03;7389595;19;1501;-50
2023/11/29 00:37:38;;;;;;;;;;;;;;;18.30;63.99;99142.88;7390013;19;1394;-50
2023/11/29 00:40:07;;;;;;;;;;;;;;;18.34;63.95;99162.94;7388470;19;1441;-50
2023/11/29 00:42:35;;;;;;;;;;;;;;;18.33;63.75;99147.06;7389990;19;1383;-50
2023/11/29 00:45:03;;;;;;;;;;;;;;;18.32;63.74;99156.09;7389652;19;1430;-50
2023/11/29 00:47:31;;;;;;;;;;;;;;;18.31;64.07;99149.09;7387217;19;1391;-50
2023/11/29 00:50:03;;;;;;;;;;;;;;;18.34;63.79;99152.22;7389636;19;1849;-50
2023/11/29 00:52:31;;;;;;;;;;;;;;;18.26;64.12;99162.94;7389031;19;1441;-50
2023/11/29 00:55:00;;;;;;;;;;;;;;;18.24;64.13;99179.19;7388677;19;1340;-49
2023/11/29 00:57:28;;;;;;;;;;;;;;;18.23;64.00;99174.84;7388687;19;1394;-50
2023/11/29 00:59:56;;;;;;;;;;;;;;;18.29;64.01;99182.19;7389163;19;1371;-49
2023/11/29 01:02:25;;;;;;;;;;;;;;;18.32;64.33;99186.34;7390669;19;1255;-50
2023/11/29 01:04:53;;;;;;;;;;;;;;;18.32;64.08;99177.50;7388843;19;1449;-50
2023/11/29 01:07:24;;;;;;;;;;;;;;;18.29;63.90;99190.22;7388447;19;1402;-51
2023/11/29 01:09:52;;;;;;;;;;;;;;;18.25;64.09;99199.59;7387411;19;1891;-50
2023/11/29 01:12:20;;;;;;;;;;;;;;;18.22;64.02;99213.31;7385385;19;1378;-51
2023/11/29 01:14:49;;;;;;;;;;;;;;;18.22;64.08;99194.59;7380349;19;1375;-51
2023/11/29 01:17:17;;;;;;;;;;;;;;;18.29;64.02;99222.31;7387669;19;1363;-49
2023/11/29 01:19:46;;;;;;;;;;;;;;;18.27;63.81;99216.31;7386561;19;1457;-49
2023/11/29 01:22:15;;;;;;;;;;;;;;;18.23;63.97;99222.16;7388410;19;1471;-50
2023/11/29 01:24:46;;;;;;;;;;;;;;;18.22;63.83;99216.00;7388540;19;1368;-50
2023/11/29 01:27:14;;;;;;;;;;;;;;;18.22;64.00;99226.69;7387947;19;1343;-50
2023/11/29 01:29:42;;;;;;;;;;;;;;;18.22;64.04;99212.44;7388225;19;1893;-50
2023/11/29 01:32:10;;;;;;;;;;;;;;;18.22;63.81;99207.97;7387677;19;1402;-50
2023/11/29 01:34:39;;;;;;;;;;;;;;;18.22;63.94;99220.47;7387742;19;1414;-50
2023/11/29 01:37:07;;;;;;;;;;;;;;;18.20;63.80;99231.34;7388050;19;1442;-50
2023/11/29 01:39:35;;;;;;;;;;;;;;;18.21;63.91;99216.16;7387632;19;1427;-50
2023/11/29 01:42:07;;;;;;;;;;;;;;;18.20;64.02;99228.66;7386396;19;1419;-50
2023/11/29 01:44:35;;;;;;;;;;;;;;;18.24;63.66;99251.44;7386884;19;1454;-50
2023/11/29 01:47:07;;;;;;;;;;;;;;;18.22;63.65;99245.41;7387190;19;1393;-50
2023/11/29 01:49:35;;;;;;;;;;;;;;;18.20;63.65;99246.56;7387463;19;1865;-50
2023/11/29 01:52:04;;;;;;;;;;;;;;;17.65;63.78;99186.50;7387632;19;1397;-50
2023/11/29 01:54:32;;;;;;;;;;;;;;;18.20;63.81;99255.44;7387784;19;1477;-50
2023/11/29 01:57:01;;;;;;;;;;;;;;;18.23;63.64;99260.47;7387250;19;1425;-50
2023/11/29 01:59:32;;;;;;;;;;;;;;;18.19;63.92;99267.16;7385088;19;1383;-50
2023/11/29 02:02:00;;;;;;;;;;;;;;;18.19;63.65;99263.63;7386198;19;1379;-50
2023/11/29 02:04:29;;;;;;;;;;;;;;;18.15;63.90;99271.16;7387289;19;1395;-50
2023/11/29 02:06:57;;;;;;;;;;;;;;;18.21;63.85;99265.13;7387416;19;1425;-49
2023/11/29 02:09:26;;;;;;;;;;;;;;;18.22;63.73;99263.28;7386973;19;1869;-50
2023/11/29 02:11:55;;;;;;;;;;;;;;;18.17;63.85;99258.44;7384094;19;1387;-50
2023/11/29 02:14:23;;;;;;;;;;;;;;;18.16;64.03;99270.13;7371497;19;1557;-50
2023/11/29 02:16:54;;;;;;;;;;;;;;;18.18;63.75;99278.84;7385987;19;1346;-50
2023/11/29 02:19:22;;;;;;;;;;;;;;;18.15;63.90;99283.72;7387853;19;1359;-50
2023/11/29 02:21:51;;;;;;;;;;;;;;;18.15;63.87;99252.44;7386015;19;1418;-50
2023/11/29 02:24:24;;;;;;;;;;;;;;;18.14;63.88;99272.16;7387111;19;1411;-50
2023/11/29 02:26:56;;;;;;;;;;;;;;;18.10;63.97;99265.47;7386094;19;1403;-50
2023/11/29 02:29:25;;;;;;;;;;;;;;;18.12;64.00;99284.03;7387185;19;1411;-50
2023/11/29 02:31:53;;;;;;;;;;;;;;;18.03;64.18;99283.19;7384475;19;1869;-50
2023/11/29 02:34:21;;;;;;;;;;;;;;;18.33;63.47;99275.53;7387047;19;1774;-50
2023/11/29 02:36:50;;;;;;;;;;;;;;;19.03;61.71;99277.63;7386235;19;1415;-50
2023/11/29 02:39:18;;;;;;;;;;;;;;;19.93;59.33;99268.34;7385731;19;1365;-50
2023/11/29 02:41:46;;;;;;;;;;;;;;;20.77;57.05;99271.00;7386651;19;1367;-52
2023/11/29 02:44:17;;;;;;;;;;;;;;;20.99;56.61;99280.88;7384290;19;1400;-50
2023/11/29 02:46:43;;;;;;;;;;;;;;;20.62;57.24;99271.00;7386691;19;1395;-51
2023/11/29 02:49:11;;;;;;;;;;;;;;;20.52;57.63;99279.28;7385015;19;1410;-51
2023/11/29 02:51:40;;;;;;;;;;;;;;;20.59;57.74;99274.91;7384751;19;1865;-50
2023/11/29 02:54:08;;;;;;;;;;;;;;;20.77;57.44;99285.28;7385909;19;1437;-50
2023/11/29 02:56:36;;;;;;;;;;;;;;;21.03;56.49;99292.09;7384246;19;1401;-50
2023/11/29 02:59:05;;;;;;;;;;;;;;;21.10;56.25;99287.63;7385421;19;1442;-50
2023/11/29 03:01:36;;;;;;;;;;;;;;;21.19;56.23;99293.75;7386085;19;1351;-50
2023/11/29 03:04:04;;;;;;;;;;;;;;;21.25;55.83;99295.69;7385325;19;1437;-50
2023/11/29 03:06:33;;;;;;;;;;;;;;;21.30;55.50;99300.50;7387081;19;1398;-51
2023/11/29 03:09:01;;;;;;;;;;;;;;;21.30;55.69;99298.66;7385640;19;1463;-51
2023/11/29 03:11:29;;;;;;;;;;;;;;;21.39;55.32;99288.66;7383564;19;1843;-50
2023/11/29 03:13:57;;;;;;;;;;;;;;;21.45;55.46;99317.50;7371906;19;1837;-51
2023/11/29 03:16:26;;;;;;;;;;;;;;;21.52;55.28;99301.44;7386273;19;1390;-51
2023/11/29 03:18:57;;;;;;;;;;;;;;;21.60;54.92;99320.16;7387333;19;1343;-51
2023/11/29 03:21:28;;;;;;;;;;;;;;;21.63;54.83;99322.50;7385073;19;1406;-50
2023/11/29 03:23:57;;;;;;;;;;;;;;;21.61;54.64;99327.22;7387714;19;1358;-51
2023/11/29 03:26:25;;;;;;;;;;;;;;;21.69;54.84;99334.38;7387326;19;1498;-50
2023/11/29 03:28:53;;;;;;;;;;;;;;;21.69;54.76;99328.97;7385934;19;1425;-51
2023/11/29 03:31:21;;;;;;;;;;;;;;;21.81;54.52;99344.44;7384528;19;1849;-50
2023/11/29 03:33:50;;;;;;;;;;;;;;;21.76;54.51;99327.19;7385135;19;1340;-51
2023/11/29 03:36:21;;;;;;;;;;;;;;;21.65;54.69;99334.72;7385176;19;1482;-50
2023/11/29 03:38:49;;;;;;;;;;;;;;;21.50;55.09;99347.34;7389219;19;1609;-51
2023/11/29 03:41:18;;;;;;;;;;;;;;;21.24;55.50;99347.78;7393091;19;1540;-50
2023/11/29 03:43:46;;;;;;;;;;;;;;;21.12;56.05;99346.56;7394305;19;1292;-50
2023/11/29 03:46:14;;;;;;;;;;;;;;;21.15;55.96;99354.25;7391638;19;1910;-50
2023/11/29 03:48:42;;;;;;;;;;;;;;;21.12;55.76;99343.88;7390895;19;1355;-51
2023/11/29 03:51:11;;;;;;;;;;;;;;;21.22;55.99;99377.53;7390496;19;1862;-50
2023/11/29 03:53:42;;;;;;;;;;;;;;;21.17;55.68;99376.41;7390458;19;1355;-50
2023/11/29 03:56:10;;;;;;;;;;;;;;;21.18;55.50;99375.41;7390993;19;1336;-51
2023/11/29 03:58:38;;;;;;;;;;;;;;;21.34;55.55;99375.22;7391080;19;1439;-50
2023/11/29 04:01:07;;;;;;;;;;;;;;;21.01;56.21;99386.34;7390858;19;1552;-51
2023/11/29 04:03:35;;;;;;;;;;;;;;;20.34;57.56;99400.41;7390535;19;1811;-50
2023/11/29 04:06:04;;;;;;;;;;;;;;;19.92;58.62;99411.56;7391889;19;1522;-50
2023/11/29 04:08:32;;;;;;;;;;;;;;;19.62;59.49;99389.84;7391096;19;1346;-51
2023/11/29 04:11:03;;;;;;;;;;;;;;;19.96;58.56;99397.59;7389395;19;1869;-50
2023/11/29 04:13:31;;;;;;;;;;;;;;;20.50;57.39;99398.63;7375395;19;1422;-50
2023/11/29 04:15:59;;;;;;;;;;;;;;;20.88;56.20;99412.97;7390677;19;1390;-50
2023/11/29 04:18:28;;;;;;;;;;;;;;;20.94;56.04;99406.88;7390162;19;1216;-51
2023/11/29 04:21:00;;;;;;;;;;;;;;;20.81;56.56;99412.00;7390767;19;1383;-50
2023/11/29 04:23:28;;;;;;;;;;;;;;;19.75;57.42;99339.19;7390735;19;1358;-50
2023/11/29 04:25:56;;;;;;;;;;;;;;;19.75;58.72;99421.50;7389693;19;1367;-51
2023/11/29 04:28:27;;;;;;;;;;;;;;;19.91;58.76;99421.44;7390576;19;1422;-50
2023/11/29 04:30:55;;;;;;;;;;;;;;;20.48;57.20;99433.72;7386282;19;1871;-51
2023/11/29 04:33:24;;;;;;;;;;;;;;;20.93;55.86;99425.84;7389549;19;1423;-50
2023/11/29 04:35:53;;;;;;;;;;;;;;;21.10;55.34;99430.09;7390096;19;1435;-50
2023/11/29 04:38:21;;;;;;;;;;;;;;;21.12;55.55;99435.28;7388374;19;1772;-50
2023/11/29 04:40:50;;;;;;;;;;;;;;;21.22;55.06;99441.22;7388642;19;1385;-50
2023/11/29 04:43:19;;;;;;;;;;;;;;;21.29;55.03;99436.81;7388987;19;1490;-50
2023/11/29 04:45:50;;;;;;;;;;;;;;;21.17;55.37;99438.25;7388796;19;1415;-50
2023/11/29 04:48:19;;;;;;;;;;;;;;;20.63;56.62;99450.78;7388943;19;1386;-49
2023/11/29 04:50:47;;;;;;;;;;;;;;;20.06;57.93;99446.53;7387875;19;1865;-50
2023/11/29 04:53:15;;;;;;;;;;;;;;;19.76;59.23;99461.56;7388370;19;1365;-50
2023/11/29 04:55:43;;;;;;;;;;;;;;;19.99;58.79;99450.06;7388408;19;1342;-53
2023/11/29 04:58:12;;;;;;;;;;;;;;;20.46;57.56;99462.59;7388537;19;1379;-50
2023/11/29 05:00:40;;;;;;;;;;;;;;;20.83;56.47;99475.31;7388250;19;1705;-50
2023/11/29 05:03:11;;;;;;;;;;;;;;;20.85;56.19;99461.72;7389324;19;1474;-52
2023/11/29 05:05:39;;;;;;;;;;;;;;;20.90;56.31;99470.06;7390297;19;1513;-50
2023/11/29 05:08:08;;;;;;;;;;;;;;;20.73;56.39;99471.19;7390546;19;1413;-50
2023/11/29 05:10:36;;;;;;;;;;;;;;;20.18;57.61;99472.97;7390101;19;1843;-50
2023/11/29 05:13:06;;;;;;;;;;;;;;;19.76;58.61;99483.03;7389794;19;1208;-50
2023/11/29 05:15:34;;;;;;;;;;;;;;;20.13;57.86;99481.53;7375506;19;1677;-50
2023/11/29 05:18:03;;;;;;;;;;;;;;;20.69;56.47;99486.00;7389575;19;1378;-50
2023/11/29 05:20:34;;;;;;;;;;;;;;;21.11;55.75;99488.22;7388773;19;1300;-50
2023/11/29 05:23:03;;;;;;;;;;;;;;;21.21;55.13;99488.81;7389402;19;1379;-62
2023/11/29 05:25:31;;;;;;;;;;;;;;;20.69;56.47;99502.09;7389262;19;1402;-50
2023/11/29 05:27:59;;;;;;;;;;;;;;;20.03;57.90;99510.44;7388809;19;1395;-49
2023/11/29 05:30:28;;;;;;;;;;;;;;;19.65;58.96;99526.25;7388751;19;1386;-49
2023/11/29 05:32:56;;;;;;;;;;;;;;;19.58;60.14;99534.16;7386289;19;1861;-49
2023/11/29 05:35:24;;;;;;;;;;;;;;;19.32;60.71;99534.34;7387067;19;1395;-50
2023/11/29 05:37:55;;;;;;;;;;;;;;;19.23;60.94;99551.41;7389382;19;1394;-49
2023/11/29 05:40:23;;;;;;;;;;;;;;;19.12;61.77;99549.03;7387103;19;1426;-50
2023/11/29 05:42:52;;;;;;;;;;;;;;;19.81;59.84;99554.94;7387850;19;1470;-50
2023/11/29 05:45:21;;;;;;;;;;;;;;;20.24;58.78;99550.13;7386983;19;1553;-50
2023/11/29 05:47:49;;;;;;;;;;;;;;;19.89;59.82;99575.53;7386448;19;1431;-50
2023/11/29 05:50:17;;;;;;;;;;;;;;;19.53;60.78;99557.13;7387179;19;1851;-49
2023/11/29 05:52:45;;;;;;;;;;;;;;;19.41;60.99;99573.53;7386466;19;1851;-47
2023/11/29 05:55:16;;;;;;;;;;;;;;;19.32;61.36;99569.19;7386434;19;1398;-47
2023/11/29 05:57:45;;;;;;;;;;;;;;;19.25;58.94;99589.59;7383015;19;1482;-47
2023/11/29 06:00:18;;;;;;;;;;;;;;;19.73;58.26;99571.88;7100142;19;9999915;-47
2023/11/29 06:02:47;;;;;;;;;;;;;;;19.90;57.43;99569.19;7384399;19;1390;-47
2023/11/29 06:05:15;;;;;;;;;;;;;;;19.67;57.93;99575.19;7383047;19;1533;-48
2023/11/29 06:07:43;;;;;;;;;;;;;;;19.48;59.01;99577.22;7388781;19;1550;-48
2023/11/29 06:10:12;;;;;;;;;;;;;;;19.33;59.50;99568.16;7386219;19;1319;-47
2023/11/29 06:12:44;;;;;;;;;;;;;;;19.51;59.14;99591.31;7385858;19;1846;-47
2023/11/29 06:15:13;;;;;;;;;;;;;;;20.06;57.73;99586.06;7366137;19;1340;-47
2023/11/29 06:17:42;;;;;;;;;;;;;;;19.90;58.21;99579.91;7386389;19;1348;-47
2023/11/29 06:20:11;;;;;;;;;;;;;;;19.69;58.72;99610.72;7385893;19;1378;-46
2023/11/29 06:22:40;;;;;;;;;;;;;;;19.45;59.46;99599.00;7385924;19;1378;-49
2023/11/29 06:25:08;;;;;;;;;;;;;;;19.25;60.07;99609.19;7384986;19;1395;-47
2023/11/29 06:27:37;;;;;;;;;;;;;;;19.42;59.64;99612.75;7320899;19;14051;-47
2023/11/29 06:30:09;;;;;;;;;;;;;;;19.92;58.37;99616.28;7383594;19;1566;-46
2023/11/29 06:32:37;;;;;;;;;;;;;;;19.75;58.15;99615.44;7381011;19;1857;-46
2023/11/29 06:35:06;;;;;;;;;;;;;;;19.49;59.09;99645.09;7386402;19;1345;-48
2023/11/29 06:37:35;;;;;;;;;;;;;;;19.27;59.49;99643.88;7385859;19;1229;-47
2023/11/29 06:40:03;;;;;;;;;;;;;;;19.17;60.14;99649.38;7384369;19;1440;-47
2023/11/29 06:42:31;;;;;;;;;;;;;;;19.55;58.07;99640.91;7384252;19;1389;-47
2023/11/29 06:45:00;;;;;;;;;;;;;;;19.90;56.63;99650.50;7386193;19;1523;-47
2023/11/29 06:47:31;;;;;;;;;;;;;;;19.66;56.75;99651.31;7383704;19;1425;-47
2023/11/29 06:49:59;;;;;;;;;;;;;;;19.44;57.48;99652.81;7384606;19;1499;-47
2023/11/29 06:52:27;;;;;;;;;;;;;;;19.23;58.15;99653.25;7383864;19;2026;-47
2023/11/29 06:54:55;;;;;;;;;;;;;;;19.43;57.86;99664.50;7384324;19;1496;-47
2023/11/29 06:57:24;;;;;;;;;;;;;;;19.90;56.60;99687.22;7385055;19;1407;-47
2023/11/29 06:59:52;;;;;;;;;;;;;;;19.80;56.98;99698.97;7385986;19;1365;-47
2023/11/29 07:02:20;;;;;;;;;;;;;;;19.47;57.90;99698.88;7386003;19;1418;-47
2023/11/29 07:04:51;;;;;;;;;;;;;;;19.22;58.43;99695.31;7384680;19;1366;-47
2023/11/29 07:07:20;;;;;;;;;;;;;;;19.19;58.97;99724.28;7385602;19;1451;-47
2023/11/29 07:09:49;;;;;;;;;;;;;;;19.83;57.25;99703.97;7384727;19;1390;-48
2023/11/29 07:12:18;;;;;;;;;;;;;;;20.09;56.74;99697.59;7383653;19;1860;-47
2023/11/29 07:14:46;;;;;;;;;;;;;;;19.82;57.68;99713.03;7378046;19;1366;-47
2023/11/29 07:17:14;;;;;;;;;;;;;;;19.56;58.16;99712.31;7390163;19;1401;-47
2023/11/29 07:19:42;;;;;;;;;;;;;;;19.42;58.98;99729.88;7390173;19;1384;-47
2023/11/29 07:22:14;;;;;;;;;;;;;;;19.28;59.59;99729.50;7379360;19;1383;-46
2023/11/29 07:24:43;;;;;;;;;;;;;;;19.72;58.26;99735.69;7388191;19;1378;-48
2023/11/29 07:27:11;;;;;;;;;;;;;;;20.26;56.87;99730.66;7383947;19;1374;-50
2023/11/29 07:29:40;;;;;;;;;;;;;;;19.93;57.78;99741.38;7389908;19;1447;-47
2023/11/29 07:32:10;;;;;;;;;;;;;;;19.62;58.42;99735.78;7386254;19;1841;-48
2023/11/29 07:34:38;;;;;;;;;;;;;;;19.48;58.82;99781.00;7391218;19;1213;-48
2023/11/29 07:37:06;;;;;;;;;;;;;;;19.31;59.25;99757.81;7389854;19;1415;-48
2023/11/29 07:39:37;;;;;;;;;;;;;;;19.64;58.96;99780.22;7390465;19;1359;-48
2023/11/29 07:42:07;;;;;;;;;;;;;;;20.22;57.36;99774.97;7389217;19;1291;-48
2023/11/29 07:44:35;;;;;;;;;;;;;;;20.18;57.44;99793.25;7391258;19;1279;-47
2023/11/29 07:47:03;;;;;;;;;;;;;;;20.00;57.92;99773.78;7390896;19;1703;-52
2023/11/29 07:49:32;;;;;;;;;;;;;;;19.88;58.27;99769.75;7390501;19;1831;-50
2023/11/29 07:54:37;;;;;;;;;;;;;;;19.59;58.85;99781.69;7343712;19;12904;-50
2023/11/29 07:57:05;;;;;;;;;;;;;;;19.63;59.25;99794.59;7420025;19;1516;-50
2023/11/29 07:59:33;;;;;;;;;;;;;;;20.20;58.04;99790.38;7413175;19;1849;-50
2023/11/29 08:02:03;;;;;;;;;;;;;;;20.70;56.61;99789.38;7416570;19;1348;-50
2023/11/29 08:04:32;;;;;;;;;;;;;;;20.22;57.75;99793.75;7416395;19;1401;-50
2023/11/29 08:07:00;;;;;;;;;;;;;;;20.02;58.32;99803.97;7417361;19;1568;-52
2023/11/29 08:09:29;;;;;;;;;;;;;;;19.74;58.84;99820.34;7417637;19;1614;-53
2023/11/29 08:12:00;;;;;;;;;;;;;;;19.63;59.16;99807.19;7420349;19;1337;-50
2023/11/29 08:14:28;;;;;;;;;;;;;;;19.56;58.96;99819.59;7398528;19;1846;-54
2023/11/29 08:16:56;;;;;;;;;;;;;;;19.56;59.27;99803.50;7417760;19;1384;-52
2023/11/29 08:19:25;;;;;;;;;;;;;;;20.05;58.31;99798.25;7420051;19;1326;-54
2023/11/29 08:21:53;;;;;;;;;;;;;;;20.53;56.95;99804.66;7419603;19;1412;-51
2023/11/29 08:24:22;;;;;;;;;;;;;;;20.30;57.56;99806.34;7419003;19;1232;-52
2023/11/29 08:26:50;;;;;;;;;;;;;;;20.05;58.10;99798.25;7418709;19;1393;-54
2023/11/29 08:29:21;;;;;;;;;;;;;;;20.00;58.54;99811.34;7421317;19;1419;-54
2023/11/29 08:31:50;;;;;;;;;;;;;;;19.84;58.75;99818.34;7420592;19;1453;-52
2023/11/29 08:34:18;;;;;;;;;;;;;;;19.77;58.97;99830.72;7417497;19;1859;-54
2023/11/29 08:36:46;;;;;;;;;;;;;;;19.68;59.41;99829.84;7421436;19;1353;-53
2023/11/29 08:39:15;;;;;;;;;;;;;;;19.71;59.52;99834.06;7419812;19;1509;-50
2023/11/29 08:41:43;;;;;;;;;;;;;;;19.63;58.99;99839.38;7417457;19;1369;-52
2023/11/29 08:44:13;;;;;;;;;;;;;;;19.70;58.28;99853.81;7417399;19;1409;-52
2023/11/29 08:46:44;;;;;;;;;;;;;;;20.39;56.65;99842.91;7417755;19;1317;-54
2023/11/29 08:49:12;;;;;;;;;;;;;;;20.22;56.24;99842.91;7416646;19;1364;-52
2023/11/29 08:51:40;;;;;;;;;;;;;;;19.96;56.58;99852.94;7419420;19;1135;-52
2023/11/29 08:54:09;;;;;;;;;;;;;;;19.74;57.21;99843.66;7411553;19;1857;-52
2023/11/29 08:56:38;;;;;;;;;;;;;;;19.66;57.44;99847.09;7414809;19;1564;-52
2023/11/29 08:59:19;;;;;;;;;;;;;;;19.61;57.60;99863.66;7417851;19;1358;-51
2023/11/29 09:01:52;;;;;;;;;;;;;;;20.24;56.55;99838.19;7323746;19;1780;-49
2023/11/29 09:04:21;;;;;;;;;;;;;;;20.51;56.31;99841.56;7400674;19;1373;-50
2023/11/29 09:06:50;;;;;;;;;;;;;;;20.13;56.92;99853.78;7389240;19;1526;-50
2023/11/29 09:09:18;;;;;;;;;;;;;;;19.89;57.76;99835.78;7391276;19;1452;-51
2023/11/29 09:11:46;;;;;;;;;;;;;;;19.75;57.94;99840.78;7390996;19;1386;-49
2023/11/29 09:14:15;;;;;;;;;;;;;;;19.60;57.86;99845.91;7388710;19;1841;-50
2023/11/29 09:16:43;;;;;;;;;;;;;;;19.55;57.57;99858.13;7374482;19;1459;-50
2023/11/29 09:19:14;;;;;;;;;;;;;;;20.19;56.23;99848.63;7391792;19;1350;-50
2023/11/29 09:21:42;;;;;;;;;;;;;;;20.36;56.16;99852.16;7389558;19;1686;-49
2023/11/29 09:24:11;;;;;;;;;;;;;;;20.06;56.65;99867.88;7390840;19;1817;-50
2023/11/29 09:26:39;;;;;;;;;;;;;;;19.81;57.47;99844.66;7389755;19;1455;-49
2023/11/29 09:29:08;;;;;;;;;;;;;;;19.69;57.83;99846.75;7389905;19;1401;-50
2023/11/29 09:31:36;;;;;;;;;;;;;;;19.62;57.93;99878.75;7390067;19;1491;-49
2023/11/29 09:34:05;;;;;;;;;;;;;;;19.65;58.30;99872.22;7388040;19;1850;-50
2023/11/29 09:36:36;;;;;;;;;;;;;;;20.26;56.72;99854.97;7388490;19;1431;-50
2023/11/29 09:39:12;;;;;;;;;;;;;;;20.18;56.80;99854.97;7389417;19;1486;-49
2023/11/29 09:41:41;;;;;;;;;;;;;;;19.84;57.52;99865.81;7389315;19;1474;-51
2023/11/29 09:44:09;;;;;;;;;;;;;;;19.69;58.08;99868.22;7389341;19;1520;-50
2023/11/29 09:46:39;;;;;;;;;;;;;;;19.54;58.48;99867.19;7389288;19;1432;-49
2023/11/29 09:49:07;;;;;;;;;;;;;;;19.40;58.78;99858.72;7387726;19;1470;-50
2023/11/29 09:51:38;;;;;;;;;;;;;;;19.75;58.20;99854.19;7389495;19;1408;-50
2023/11/29 09:54:07;;;;;;;;;;;;;;;20.20;56.89;99852.97;7387612;19;1849;-51
2023/11/29 09:56:36;;;;;;;;;;;;;;;19.83;57.66;99832.75;7386708;19;1539;-49
2023/11/29 09:59:04;;;;;;;;;;;;;;;19.57;58.50;99842.69;7386726;19;1344;-50
2023/11/29 10:01:37;;;;;;;;;;;;;;;19.39;58.76;99846.31;7387767;19;1471;-50
2023/11/29 10:04:08;;;;;;;;;;;;;;;19.30;59.31;99841.94;7390180;19;1235;-49
2023/11/29 10:06:39;;;;;;;;;;;;;;;19.76;58.15;99849.69;7389163;19;1282;-50
2023/11/29 10:09:06;;;;;;;;;;;;;;;20.11;57.44;99845.91;7388484;19;1395;-50
2023/11/29 10:11:35;;;;;;;;;;;;;;;19.84;57.76;99860.44;7388665;19;1496;-50
2023/11/29 10:14:04;;;;;;;;;;;;;;;19.67;58.14;99849.59;7387067;19;2005;-50
2023/11/29 10:16:33;;;;;;;;;;;;;;;19.55;58.77;99860.78;7370772;19;1337;-67
2023/11/29 10:19:03;;;;;;;;;;;;;;;19.43;58.93;99862.91;7388293;19;1399;-50
2023/11/29 10:21:32;;;;;;;;;;;;;;;19.74;58.34;99859.75;7388400;19;1354;-50
2023/11/29 10:24:03;;;;;;;;;;;;;;;20.13;57.43;99857.31;7389825;19;1377;-49
2023/11/29 10:26:31;;;;;;;;;;;;;;;19.88;57.54;99850.22;7390588;19;1088;-50
2023/11/29 10:28:59;;;;;;;;;;;;;;;19.62;58.04;99848.44;7386151;19;1876;-51
2023/11/29 10:31:29;;;;;;;;;;;;;;;19.48;58.67;99869.47;7389141;19;1430;-50
2023/11/29 10:33:58;;;;;;;;;;;;;;;19.37;59.32;99855.53;7387855;19;1850;-51
2023/11/29 10:36:28;;;;;;;;;;;;;;;19.58;58.81;99876.56;7387818;19;1294;-51
2023/11/29 10:39:04;;;;;;;;;;;;;;;20.11;57.35;99882.63;7389339;19;1380;-51
2023/11/29 10:41:37;;;;;;;;;;;;;;;19.76;58.22;99869.28;7374622;19;1361;-51
2023/11/29 10:44:06;;;;;;;;;;;;;;;19.51;58.72;99887.09;7388454;19;1448;-53
2023/11/29 10:46:36;;;;;;;;;;;;;;;19.35;59.23;99898.56;7388381;19;1404;-51
2023/11/29 10:49:08;;;;;;;;;;;;;;;19.33;59.35;99897.88;7387687;19;1223;-52
2023/11/29 10:51:37;;;;;;;;;;;;;;;19.98;58.06;99893.84;7387722;19;1393;-51
2023/11/29 10:54:08;;;;;;;;;;;;;;;19.99;57.75;99898.19;7386099;19;1849;-49
2023/11/29 10:56:39;;;;;;;;;;;;;;;19.81;58.55;99911.72;7386281;19;1451;-53
2023/11/29 10:59:13;;;;;;;;;;;;;;;19.58;59.36;99906.91;7386203;19;1446;-54
2023/11/29 11:01:43;;;;;;;;;;;;;;;19.50;59.91;99922.09;7386568;19;1408;-54
2023/11/29 11:04:11;;;;;;;;;;;;;;;19.46;59.75;99924.28;7386938;19;1420;-53
2023/11/29 11:06:39;;;;;;;;;;;;;;;20.07;57.94;99908.97;7386054;19;1416;-52
2023/11/29 11:09:30;;;;;;;;;;;;;;;20.30;57.30;99911.03;7386230;19;1385;-52
2023/11/29 11:12:02;;;;;;;;;;;;;;;19.95;58.04;99910.28;7387229;19;1408;-48
2023/11/29 11:14:31;;;;;;;;;;;;;;;19.75;58.65;99907.84;7386007;19;1860;-48
2023/11/29 11:17:01;;;;;;;;;;;;;;;19.58;59.15;99914.97;7372741;19;1454;-51
2023/11/29 11:19:31;;;;;;;;;;;;;;;19.47;59.26;99924.09;7385820;19;1798;-49
2023/11/29 11:22:00;;;;;;;;;;;;;;;19.68;58.82;99922.88;7386380;19;1437;-49
2023/11/29 11:24:43;;;;;;;;;;;;;;;20.15;57.68;99914.34;7387292;19;1412;-49
2023/11/29 11:27:16;;;;;;;;;;;;;;;19.97;58.13;99921.69;7385843;19;1453;-48
2023/11/29 11:29:44;;;;;;;;;;;;;;;19.67;58.53;99931.91;7386651;19;1460;-49
2023/11/29 11:32:13;;;;;;;;;;;;;;;19.41;59.00;99916.69;7386268;19;1395;-49
2023/11/29 11:34:41;;;;;;;;;;;;;;;19.30;59.68;99916.97;7383850;19;1847;-50
2023/11/29 11:37:10;;;;;;;;;;;;;;;19.64;58.81;99926.88;7383719;19;1940;-49
2023/11/29 11:39:38;;;;;;;;;;;;;;;20.02;57.32;99922.88;7385415;19;1357;-50
2023/11/29 11:42:07;;;;;;;;;;;;;;;19.84;57.83;99904.19;7383002;19;1530;-48
2023/11/29 11:44:38;;;;;;;;;;;;;;;19.57;58.41;99923.16;7385773;19;1483;-49
2023/11/29 11:47:07;;;;;;;;;;;;;;;19.32;58.82;99935.56;7386023;19;1534;-50
2023/11/29 11:49:35;;;;;;;;;;;;;;;19.22;58.74;99962.50;7385895;19;1596;-48
2023/11/29 11:52:03;;;;;;;;;;;;;;;19.68;57.71;99937.13;7384115;19;1484;-49
2023/11/29 11:54:32;;;;;;;;;;;;;;;19.91;56.86;99950.00;7382742;19;1881;-50
2023/11/29 11:57:03;;;;;;;;;;;;;;;19.58;57.58;99957.03;7383784;19;1219;-51
2023/11/29 11:59:32;;;;;;;;;;;;;;;19.35;58.03;99967.44;7380549;19;1690;-50
2023/11/29 12:02:04;;;;;;;;;;;;;;;19.24;58.60;99968.53;7382886;19;1365;-50
2023/11/29 12:04:32;;;;;;;;;;;;;;;19.43;58.23;99954.91;7382952;19;1429;-51
2023/11/29 12:07:00;;;;;;;;;;;;;;;19.92;56.92;99975.00;7382200;19;1491;-50
2023/11/29 12:09:29;;;;;;;;;;;;;;;19.72;57.35;99959.16;7381769;19;1465;-49
2023/11/29 12:12:08;;;;;;;;;;;;;;;19.41;58.18;99983.72;7379902;19;2114;-50
2023/11/29 12:14:36;;;;;;;;;;;;;;;19.22;58.50;100000.03;7380669;19;1845;-50
2023/11/29 12:17:07;;;;;;;;;;;;;;;19.38;58.38;100015.41;7366318;19;1955;-50
2023/11/29 12:19:36;;;;;;;;;;;;;;;19.63;57.56;99978.84;7382247;19;1494;-51
2023/11/29 12:22:04;;;;;;;;;;;;;;;19.10;57.98;99928.88;7385507;19;1231;-50
2023/11/29 12:24:33;;;;;;;;;;;;;;;19.29;58.35;99995.72;7385804;19;1479;-50
2023/11/29 12:27:07;;;;;;;;;;;;;;;19.15;58.79;99996.28;7386415;19;1365;-50
2023/11/29 12:29:36;;;;;;;;;;;;;;;19.27;58.63;99989.66;7386222;19;1356;-51
2023/11/29 12:32:08;;;;;;;;;;;;;;;19.51;58.13;99988.97;7386025;19;1393;-50
2023/11/29 12:34:37;;;;;;;;;;;;;;;19.51;57.95;100009.59;7385919;19;1833;-50
2023/11/29 12:37:08;;;;;;;;;;;;;;;19.30;58.51;100012.63;7386234;19;1389;-50
2023/11/29 12:39:37;;;;;;;;;;;;;;;19.15;58.66;100010.50;7387619;19;1440;-49
2023/11/29 12:42:05;;;;;;;;;;;;;;;19.15;58.88;100012.34;7393101;19;1440;-50
2023/11/29 12:44:34;;;;;;;;;;;;;;;19.45;58.10;100028.00;7392721;19;1839;-50
2023/11/29 12:47:03;;;;;;;;;;;;;;;19.51;57.94;100047.16;7391997;19;1353;-51
2023/11/29 12:49:34;;;;;;;;;;;;;;;19.27;58.30;100032.56;7393003;19;1322;-50
2023/11/29 12:52:03;;;;;;;;;;;;;;;19.16;58.70;100030.97;7394429;19;1247;-49
2023/11/29 12:54:32;;;;;;;;;;;;;;;19.05;59.01;100037.38;7391334;19;1854;-51
2023/11/29 12:57:01;;;;;;;;;;;;;;;19.31;58.66;100036.59;7389743;19;1401;-49
2023/11/29 12:59:29;;;;;;;;;;;;;;;19.86;56.91;100024.78;7391738;19;1483;-50
2023/11/29 13:01:57;;;;;;;;;;;;;;;19.45;57.97;100051.28;7392161;19;1358;-50
2023/11/29 13:04:25;;;;;;;;;;;;;;;19.21;58.68;100063.50;7392266;19;1408;-50
2023/11/29 13:06:56;;;;;;;;;;;;;;;19.05;59.02;100074.91;7393445;19;1307;-49